createdAt,value
2019-03-28T00:00:01.853Z,7.37
2019-03-28T00:02:30.910Z,7.43
2019-03-28T00:04:59.806Z,6.43
2019-03-28T00:07:28.801Z,6.37
2019-03-28T00:09:57.581Z,6.80
2019-03-28T00:12:26.783Z,6.33
2019-03-28T00:14:55.928Z,6.77
2019-03-28T00:17:24.895Z,6.33
2019-03-28T00:19:53.893Z,6.93
2019-03-28T00:22:41.196Z,7.40
2019-03-28T00:25:14.292Z,6.43
2019-03-28T00:27:43.559Z,7.77
2019-03-28T00:30:13.813Z,7.30
2019-03-28T00:32:42.948Z,6.43
2019-03-28T00:35:11.877Z,6.43
2019-03-28T00:37:40.733Z,6.63
2019-03-28T00:40:09.714Z,7.00
2019-03-28T00:42:38.866Z,6.47
2019-03-28T00:45:08.264Z,6.93
2019-03-28T00:47:37.411Z,7.17
2019-03-28T00:50:07.054Z,7.33
2019-03-28T00:52:35.977Z,6.90
2019-03-28T00:55:06.687Z,7.23
2019-03-28T00:57:35.683Z,7.27
2019-03-28T01:00:06.488Z,6.40
2019-03-28T01:02:35.369Z,6.90
2019-03-28T01:05:08.363Z,6.60
2019-03-28T01:07:37.375Z,6.33
2019-03-28T01:10:06.277Z,7.27
2019-03-28T01:12:35.279Z,7.00
2019-03-28T01:15:08.347Z,7.63
2019-03-28T01:17:37.242Z,7.00
2019-03-28T01:20:06.966Z,7.47
2019-03-28T01:22:35.771Z,7.40
2019-03-28T01:25:05.345Z,8.00
2019-03-28T01:27:34.235Z,8.13
2019-03-28T01:30:03.273Z,8.33
2019-03-28T01:32:32.309Z,7.80
2019-03-28T01:35:01.262Z,8.03
2019-03-28T01:37:30.206Z,7.60
2019-03-28T01:39:59.207Z,8.03
2019-03-28T01:42:31.155Z,7.93
2019-03-28T01:45:00.123Z,8.30
2019-03-28T01:47:29.347Z,7.90
2019-03-28T01:49:58.209Z,7.90
2019-03-28T01:52:27.311Z,7.53
2019-03-28T01:54:56.293Z,8.50
2019-03-28T01:57:25.359Z,7.00
2019-03-28T01:59:54.216Z,8.00
2019-03-28T02:02:23.119Z,7.57
2019-03-28T02:04:52.328Z,7.13
2019-03-28T02:07:21.305Z,7.60
2019-03-28T02:09:50.125Z,8.30
2019-03-28T02:12:18.980Z,7.97
2019-03-28T02:14:47.830Z,7.93
2019-03-28T02:17:17.078Z,7.57
2019-03-28T02:19:46.118Z,7.30
2019-03-28T02:22:15.054Z,8.07
2019-03-28T02:24:44.114Z,7.97
2019-03-28T02:27:23.286Z,7.93
2019-03-28T02:29:43.665Z,8.73
2019-03-28T02:32:12.517Z,7.27
2019-03-28T02:34:41.614Z,8.23
2019-03-28T02:37:10.986Z,7.90
2019-03-28T02:39:42.641Z,8.70
2019-03-28T02:42:11.797Z,8.63
2019-03-28T02:44:40.742Z,8.67
2019-03-28T02:47:09.696Z,8.37
2019-03-28T02:49:38.833Z,8.13
2019-03-28T02:52:07.705Z,8.30
2019-03-28T02:54:36.910Z,9.53
2019-03-28T02:57:05.939Z,9.50
2019-03-28T02:59:34.844Z,7.90
2019-03-28T03:02:03.724Z,8.73
2019-03-28T03:04:32.622Z,9.40
2019-03-28T03:07:01.537Z,8.80
2019-03-28T03:09:30.519Z,8.67
2019-03-28T03:11:59.452Z,8.43
2019-03-28T03:14:28.569Z,7.97
2019-03-28T03:16:57.527Z,8.83
2019-03-28T03:19:26.528Z,8.30
2019-03-28T03:21:55.390Z,8.43
2019-03-28T03:24:24.591Z,8.37
2019-03-28T03:26:53.536Z,8.93
2019-03-28T03:29:22.483Z,8.53
2019-03-28T03:31:53.511Z,9.90
2019-03-28T03:34:22.089Z,8.93
2019-03-28T03:36:51.315Z,9.00
2019-03-28T03:39:20.224Z,9.53
2019-03-28T03:41:49.089Z,9.20
2019-03-28T03:44:17.950Z,9.10
2019-03-28T03:46:47.334Z,8.63
2019-03-28T03:49:19.374Z,9.23
2019-03-28T03:51:48.304Z,8.93
2019-03-28T03:54:17.174Z,9.50
2019-03-28T03:56:46.203Z,9.27
2019-03-28T03:59:15.138Z,9.20
2019-03-28T04:01:44.614Z,9.73
2019-03-28T04:04:13.736Z,9.60
2019-03-28T04:06:42.794Z,11.97
2019-03-28T04:09:13.103Z,14.33
2019-03-28T04:11:42.179Z,16.67
2019-03-28T04:14:11.053Z,12.60
2019-03-28T04:16:40.041Z,13.33
2019-03-28T04:19:08.993Z,12.47
2019-03-28T04:21:37.915Z,10.60
2019-03-28T04:24:06.867Z,12.70
2019-03-28T04:26:36.565Z,11.43
2019-03-28T04:29:05.674Z,11.27
2019-03-28T04:31:34.566Z,11.43
2019-03-28T04:34:07.419Z,12.90
2019-03-28T04:36:34.069Z,14.10
2019-03-28T04:39:04.421Z,14.00
2019-03-28T04:41:33.327Z,13.40
2019-03-28T04:44:02.233Z,13.20
2019-03-28T04:46:31.508Z,12.67
2019-03-28T04:49:00.398Z,12.47
2019-03-28T04:51:29.326Z,11.53
2019-03-28T04:53:58.203Z,11.80
2019-03-28T04:56:27.506Z,11.03
2019-03-28T04:58:56.327Z,12.83
2019-03-28T05:01:25.520Z,13.00
2019-03-28T05:03:54.886Z,13.10
2019-03-28T05:06:24.305Z,13.13
2019-03-28T05:08:53.458Z,14.13
2019-03-28T05:11:22.341Z,15.07
2019-03-28T05:13:51.234Z,14.10
2019-03-28T05:16:20.054Z,14.50
2019-03-28T05:18:48.889Z,14.40
2019-03-28T05:21:17.890Z,15.13
2019-03-28T05:23:46.732Z,14.43
2019-03-28T05:26:15.703Z,14.57
2019-03-28T05:28:56.891Z,13.87
2019-03-28T05:31:15.450Z,14.70
2019-03-28T05:33:44.400Z,15.60
2019-03-28T05:36:14.909Z,13.90
2019-03-28T05:38:43.913Z,14.43
2019-03-28T05:41:12.833Z,15.50
2019-03-28T05:43:41.949Z,13.77
2019-03-28T05:46:10.821Z,16.40
2019-03-28T05:48:39.779Z,16.63
2019-03-28T05:51:08.727Z,14.63
2019-03-28T05:53:37.594Z,15.20
2019-03-28T05:56:06.490Z,17.57
2019-03-28T05:58:35.462Z,15.17
2019-03-28T06:01:04.376Z,15.97
2019-03-28T06:03:33.473Z,16.00
2019-03-28T06:06:02.448Z,15.80
2019-03-28T06:08:31.304Z,15.30
2019-03-28T06:11:00.206Z,15.83
2019-03-28T06:13:29.293Z,15.73
2019-03-28T06:16:04.951Z,16.30
2019-03-28T06:18:33.956Z,15.83
2019-03-28T06:21:03.146Z,20.05
2019-03-28T06:23:31.992Z,17.00
2019-03-28T06:26:01.423Z,16.60
2019-03-28T06:28:30.274Z,16.53
2019-03-28T06:30:59.134Z,16.23
2019-03-28T06:33:28.159Z,14.67
2019-03-28T06:35:57.153Z,14.63
2019-03-28T06:38:26.035Z,14.43
2019-03-28T06:40:54.975Z,15.50
2019-03-28T06:43:24.002Z,15.93
2019-03-28T06:45:53.171Z,15.07
2019-03-28T06:48:21.973Z,15.33
2019-03-28T06:50:50.978Z,14.60
2019-03-28T06:53:19.788Z,15.77
2019-03-28T06:55:48.925Z,15.60
2019-03-28T06:58:21.185Z,14.70
2019-03-28T07:00:50.035Z,14.83
2019-03-28T07:03:18.849Z,14.07
2019-03-28T07:05:48.425Z,13.10
2019-03-28T07:08:17.449Z,12.93
2019-03-28T07:10:46.415Z,12.37
2019-03-28T07:13:15.349Z,13.87
2019-03-28T07:15:44.155Z,12.20
2019-03-28T07:18:12.983Z,11.87
2019-03-28T07:20:41.922Z,12.40
2019-03-28T07:23:10.753Z,12.57
2019-03-28T07:25:39.562Z,11.77
2019-03-28T07:28:08.388Z,11.47
2019-03-28T07:30:37.391Z,8.73
2019-03-28T07:33:06.273Z,10.73
2019-03-28T07:35:35.520Z,11.00
2019-03-28T07:38:04.352Z,10.40
2019-03-28T07:40:33.652Z,10.37
2019-03-28T07:43:05.700Z,11.00
2019-03-28T07:45:34.737Z,10.90
2019-03-28T07:48:03.702Z,10.10
2019-03-28T07:54:28.885Z,9.50
2019-03-28T07:56:57.842Z,10.37
2019-03-28T07:59:26.693Z,10.27
2019-03-28T08:01:55.602Z,9.83
2019-03-28T08:04:24.589Z,11.07
2019-03-28T08:06:53.441Z,9.43
2019-03-28T08:09:22.384Z,8.87
2019-03-28T08:11:51.234Z,9.20
2019-03-28T08:14:20.154Z,8.80
2019-03-28T08:16:48.951Z,7.17
2019-03-28T08:19:17.814Z,7.27
2019-03-28T08:21:46.663Z,7.13
2019-03-28T08:24:15.594Z,6.77
2019-03-28T08:26:44.563Z,6.50
2019-03-28T08:29:13.450Z,7.00
2019-03-28T08:31:44.208Z,7.50
2019-03-28T08:34:13.050Z,6.33
2019-03-28T08:36:42.010Z,5.93
2019-03-28T08:39:10.868Z,5.67
2019-03-28T08:41:39.790Z,6.03
2019-03-28T08:44:08.690Z,6.10
2019-03-28T08:46:37.830Z,6.07
2019-03-28T08:49:06.671Z,5.43
2019-03-28T08:51:35.533Z,5.13
2019-03-28T08:54:04.599Z,5.47
2019-03-28T08:56:33.431Z,5.33
2019-03-28T08:59:03.353Z,5.00
2019-03-28T09:01:33.418Z,5.73
2019-03-28T09:04:02.232Z,5.23
2019-03-28T09:06:31.317Z,5.43
2019-03-28T09:09:00.176Z,7.10
2019-03-28T09:11:29.082Z,8.33
2019-03-28T09:13:57.961Z,8.63
2019-03-28T09:16:26.787Z,7.67
2019-03-28T09:18:55.736Z,7.40
2019-03-28T09:21:24.871Z,6.90
2019-03-28T09:23:56.783Z,6.87
2019-03-28T09:26:25.744Z,7.97
2019-03-28T09:28:54.630Z,6.80
2019-03-28T09:31:23.534Z,6.80
2019-03-28T09:33:52.331Z,6.07
2019-03-28T09:36:21.145Z,5.53
2019-03-28T09:38:50.055Z,5.97
2019-03-28T09:41:19.070Z,6.27
2019-03-28T09:43:55.119Z,4.30
2019-03-28T09:46:18.707Z,5.77
2019-03-28T09:48:47.668Z,4.90
2019-03-28T09:51:16.679Z,4.70
2019-03-28T09:53:45.572Z,4.43
2019-03-28T09:56:14.580Z,3.20
2019-03-28T09:58:43.427Z,2.63
2019-03-28T10:01:12.357Z,2.40
2019-03-28T10:03:41.533Z,2.20
2019-03-28T10:06:10.464Z,2.00
2019-03-28T10:08:39.385Z,2.33
2019-03-28T10:11:08.214Z,2.23
2019-03-28T10:13:37.086Z,2.80
2019-03-28T10:16:05.949Z,2.97
2019-03-28T10:18:35.103Z,2.63
2019-03-28T10:21:03.986Z,2.97
2019-03-28T10:23:32.822Z,4.03
2019-03-28T10:26:01.666Z,3.30
2019-03-28T10:28:30.554Z,2.63
2019-03-28T10:30:59.699Z,2.50
2019-03-28T10:33:28.590Z,2.57
2019-03-28T10:35:57.496Z,2.10
2019-03-28T10:38:26.340Z,2.10
2019-03-28T10:40:55.310Z,2.30
2019-03-28T10:43:24.165Z,2.30
2019-03-28T10:45:53.387Z,2.60
2019-03-28T10:48:23.516Z,2.30
2019-03-28T10:50:52.480Z,2.23
2019-03-28T10:53:21.390Z,2.40
2019-03-28T10:55:50.272Z,1.90
2019-03-28T10:58:19.782Z,1.97
2019-03-28T11:00:48.758Z,1.87
2019-03-28T11:03:17.850Z,2.03
2019-03-28T11:05:46.732Z,1.73
2019-03-28T11:08:16.541Z,1.60
2019-03-28T11:10:45.583Z,2.00
2019-03-28T11:13:14.417Z,1.70
2019-03-28T11:15:43.189Z,1.60
2019-03-28T11:18:12.117Z,1.97
2019-03-28T11:20:41.041Z,1.80
2019-03-28T11:23:10.119Z,1.90
2019-03-28T11:25:39.037Z,1.77
2019-03-28T11:28:07.907Z,1.73
2019-03-28T11:30:37.029Z,1.80
2019-03-28T11:33:06.609Z,1.80
2019-03-28T11:35:35.922Z,1.83
2019-03-28T11:38:05.028Z,1.70
2019-03-28T11:40:34.046Z,2.03
2019-03-28T11:43:02.996Z,1.93
2019-03-28T11:45:31.925Z,1.90
2019-03-28T11:48:00.980Z,1.90
2019-03-28T11:50:30.000Z,1.97
2019-03-28T11:52:58.882Z,2.20
2019-03-28T11:55:27.753Z,2.27
2019-03-28T11:57:56.876Z,2.00
2019-03-28T12:00:25.848Z,2.20
2019-03-28T12:02:54.746Z,2.10
2019-03-28T12:05:23.655Z,2.20
2019-03-28T12:07:52.555Z,2.50
2019-03-28T12:10:21.377Z,1.90
2019-03-28T12:12:50.333Z,2.40
2019-03-28T12:15:19.574Z,2.27
2019-03-28T12:17:48.729Z,2.63
2019-03-28T12:20:17.776Z,2.30
2019-03-28T12:22:46.691Z,2.67
2019-03-28T12:25:17.401Z,1.90
2019-03-28T12:27:46.208Z,2.40
2019-03-28T12:30:17.976Z,2.23
2019-03-28T12:32:47.221Z,2.20
2019-03-28T12:35:16.489Z,2.00
2019-03-28T12:37:45.585Z,2.23
2019-03-28T12:40:14.680Z,2.17
2019-03-28T12:42:43.962Z,1.93
2019-03-28T12:45:13.226Z,2.00
2019-03-28T12:47:43.253Z,2.20
2019-03-28T12:50:12.853Z,2.63
2019-03-28T12:52:42.279Z,2.60
2019-03-28T12:55:11.317Z,3.80
2019-03-28T12:57:40.385Z,2.07
2019-03-28T13:00:12.611Z,2.43
2019-03-28T13:02:41.670Z,2.63
2019-03-28T13:05:10.611Z,2.50
2019-03-28T13:07:39.470Z,2.50
2019-03-28T13:10:09.227Z,2.87
2019-03-28T13:12:38.195Z,2.70
2019-03-28T13:15:08.025Z,2.50
2019-03-28T13:17:37.123Z,2.90
2019-03-28T13:20:09.146Z,2.50
2019-03-28T13:22:38.828Z,2.37
2019-03-28T13:25:07.910Z,2.43
2019-03-28T13:27:37.066Z,1.97
2019-03-28T13:30:11.042Z,2.10
2019-03-28T13:32:42.164Z,2.27
2019-03-28T13:35:10.809Z,2.60
2019-03-28T13:37:39.796Z,2.62
2019-03-28T13:40:08.672Z,2.10
2019-03-28T13:42:38.826Z,2.07
2019-03-28T13:45:08.356Z,2.13
2019-03-28T13:47:37.285Z,2.30
2019-03-28T13:50:09.713Z,1.92
2019-03-28T13:52:38.705Z,1.97
2019-03-28T13:55:08.028Z,2.37
2019-03-28T13:57:37.155Z,1.90
2019-03-28T14:00:09.772Z,2.23
2019-03-28T14:02:38.772Z,2.03
2019-03-28T14:05:08.086Z,2.07
2019-03-28T14:07:37.150Z,1.90
2019-03-28T14:10:08.332Z,1.70
2019-03-28T14:12:37.469Z,1.70
2019-03-28T14:15:06.749Z,2.00
2019-03-28T14:17:35.947Z,1.93
2019-03-28T14:20:24.295Z,1.87
2019-03-28T14:22:53.168Z,1.90
2019-03-28T14:25:22.138Z,1.60
2019-03-28T14:27:51.251Z,1.60
2019-03-28T14:30:20.155Z,1.80
2019-03-28T14:32:53.421Z,1.60
2019-03-28T14:35:19.920Z,2.20
2019-03-28T14:37:49.093Z,1.90
2019-03-28T14:40:17.935Z,1.93
2019-03-28T14:42:46.789Z,1.90
2019-03-28T14:45:15.804Z,2.03
2019-03-28T14:47:44.976Z,2.07
2019-03-28T14:50:13.908Z,1.80
2019-03-28T14:52:42.806Z,2.17
2019-03-28T14:55:11.711Z,2.07
2019-03-28T14:57:40.786Z,1.67
2019-03-28T15:00:18.440Z,1.83
2019-03-28T15:02:49.035Z,1.80
2019-03-28T15:05:17.942Z,2.00
2019-03-28T15:07:46.824Z,2.20
2019-03-28T15:10:15.865Z,2.60
2019-03-28T15:12:44.803Z,2.67
2019-03-28T15:15:14.219Z,2.73
2019-03-28T15:17:45.032Z,3.03
2019-03-28T15:20:13.703Z,3.87
2019-03-28T15:22:42.659Z,3.03
2019-03-28T15:25:11.599Z,3.30
2019-03-28T15:27:40.810Z,3.10
2019-03-28T15:30:11.049Z,3.07
2019-03-28T15:32:39.942Z,3.03
2019-03-28T15:35:08.858Z,2.77
2019-03-28T15:37:38.031Z,2.97
2019-03-28T15:40:08.058Z,2.90
2019-03-28T15:42:37.051Z,3.03
2019-03-28T15:45:07.229Z,3.40
2019-03-28T15:47:36.479Z,3.87
2019-03-28T15:50:06.194Z,3.50
2019-03-28T15:52:35.051Z,3.63
2019-03-28T15:55:04.843Z,3.50
2019-03-28T15:57:33.915Z,3.63
2019-03-28T16:00:03.039Z,3.50
2019-03-28T16:02:31.980Z,3.87
2019-03-28T16:05:00.854Z,4.00
2019-03-28T16:07:29.883Z,4.00
2019-03-28T16:09:58.955Z,4.10
2019-03-28T16:12:27.881Z,4.00
2019-03-28T16:14:56.835Z,3.70
2019-03-28T16:17:27.648Z,4.13
2019-03-28T16:19:57.715Z,4.13
2019-03-28T16:22:26.909Z,4.33
2019-03-28T16:24:55.939Z,3.67
2019-03-28T16:27:24.813Z,3.90
2019-03-28T16:29:54.439Z,3.70
2019-03-28T16:32:23.841Z,3.50
2019-03-28T16:34:52.849Z,3.93
2019-03-28T16:37:21.960Z,4.23
2019-03-28T16:39:50.879Z,3.83
2019-03-28T16:42:19.863Z,4.63
2019-03-28T16:44:49.125Z,5.00
2019-03-28T16:47:17.997Z,4.40
2019-03-28T16:49:46.979Z,4.77
2019-03-28T16:52:15.779Z,3.67
2019-03-28T16:54:44.604Z,4.90
2019-03-28T16:57:13.674Z,4.30
2019-03-28T16:59:42.671Z,4.27
2019-03-28T17:02:11.727Z,4.23
2019-03-28T17:04:40.693Z,4.73
2019-03-28T17:07:09.550Z,3.90
2019-03-28T17:09:39.153Z,4.93
2019-03-28T17:12:08.266Z,4.40
2019-03-28T17:14:37.316Z,4.67
2019-03-28T17:17:06.239Z,4.33
2019-03-28T17:19:35.409Z,4.40
2019-03-28T17:22:04.292Z,4.60
2019-03-28T17:24:33.179Z,3.83
2019-03-28T17:27:02.022Z,3.73
2019-03-28T17:29:31.150Z,3.90
2019-03-28T17:31:59.977Z,4.07
2019-03-28T17:34:35.064Z,4.23
2019-03-28T17:37:01.045Z,3.53
2019-03-28T17:39:29.874Z,3.40
2019-03-28T17:41:58.861Z,3.80
2019-03-28T17:44:27.946Z,4.20
2019-03-28T17:46:56.752Z,4.97
2019-03-28T17:49:26.105Z,4.47
2019-03-28T17:51:55.236Z,4.90
2019-03-28T17:54:24.136Z,4.50
2019-03-28T17:56:52.990Z,4.63
2019-03-28T17:59:24.213Z,4.53
2019-03-28T18:01:54.181Z,4.50
2019-03-28T18:04:23.512Z,4.93
2019-03-28T18:06:52.725Z,5.00
2019-03-28T18:09:22.017Z,5.07
2019-03-28T18:11:51.199Z,4.27
2019-03-28T18:14:20.069Z,4.67
2019-03-28T18:16:48.947Z,4.27
2019-03-28T18:19:17.938Z,4.57
2019-03-28T18:21:46.768Z,4.67
2019-03-28T18:24:15.822Z,4.67
2019-03-28T18:26:44.754Z,4.63
2019-03-28T18:29:19.259Z,5.00
2019-03-28T18:31:51.774Z,4.83
2019-03-28T18:34:20.134Z,4.23
2019-03-28T18:36:49.000Z,4.93
2019-03-28T18:39:18.084Z,4.53
2019-03-28T18:41:47.005Z,4.50
2019-03-28T18:44:16.044Z,4.50
2019-03-28T18:46:45.050Z,4.47
2019-03-28T18:49:13.967Z,4.40
2019-03-28T18:51:45.358Z,4.27
2019-03-28T18:54:14.196Z,4.30
2019-03-28T18:56:43.895Z,3.80
2019-03-28T18:59:12.833Z,4.40
2019-03-28T19:01:41.614Z,4.30
2019-03-28T19:04:13.361Z,4.20
2019-03-28T19:06:42.165Z,4.60
2019-03-28T19:09:11.153Z,4.20
2019-03-28T19:11:40.984Z,4.30
2019-03-28T19:14:10.069Z,4.00
2019-03-28T19:16:40.029Z,4.07
2019-03-28T19:19:08.958Z,4.50
2019-03-28T19:21:37.872Z,4.30
2019-03-28T19:24:06.729Z,5.40
2019-03-28T19:26:35.543Z,4.60
2019-03-28T19:29:04.443Z,4.80
2019-03-28T19:31:33.378Z,4.60
2019-03-28T19:34:02.419Z,4.77
2019-03-28T19:36:31.500Z,4.40
2019-03-28T19:39:00.475Z,4.80
2019-03-28T19:41:29.780Z,5.07
2019-03-28T19:43:58.628Z,4.90
2019-03-28T19:46:27.536Z,4.67
2019-03-28T19:48:56.479Z,6.10
2019-03-28T19:51:28.245Z,4.30
2019-03-28T19:53:56.148Z,4.63
2019-03-28T19:56:25.113Z,4.40
2019-03-28T19:58:57.179Z,5.10
2019-03-28T20:01:24.734Z,4.73
2019-03-28T20:03:55.072Z,4.80
2019-03-28T20:06:25.169Z,5.00
2019-03-28T20:08:53.965Z,4.50
2019-03-28T20:11:22.914Z,4.83
2019-03-28T20:13:51.946Z,4.70
2019-03-28T20:16:20.883Z,4.70
2019-03-28T20:18:49.978Z,4.53
2019-03-28T20:21:18.844Z,5.00
2019-03-28T20:23:48.860Z,5.27
2019-03-28T20:26:19.758Z,4.37
2019-03-28T20:28:48.573Z,4.80
2019-03-28T20:31:17.476Z,4.67
2019-03-28T20:33:46.599Z,5.13
2019-03-28T20:36:36.104Z,5.10
2019-03-28T20:38:48.568Z,5.00
2019-03-28T20:41:18.296Z,5.70
2019-03-28T20:43:48.240Z,4.87
2019-03-28T20:46:20.438Z,4.60
2019-03-28T20:48:50.889Z,5.23
2019-03-28T20:51:19.823Z,4.90
2019-03-28T20:53:48.813Z,4.97
2019-03-28T20:56:17.846Z,5.10
2019-03-28T20:58:47.224Z,5.40
2019-03-28T21:01:16.240Z,4.87
2019-03-28T21:03:45.294Z,4.97
2019-03-28T21:06:15.924Z,4.90
2019-03-28T21:08:45.235Z,5.60
2019-03-28T21:11:14.152Z,5.30
2019-03-28T21:13:43.106Z,4.63
2019-03-28T21:16:12.161Z,5.20
2019-03-28T21:18:41.208Z,5.10
2019-03-28T21:21:10.107Z,5.33
2019-03-28T21:23:39.067Z,5.17
2019-03-28T21:26:07.935Z,6.10
2019-03-28T21:28:47.057Z,5.43
2019-03-28T21:31:07.445Z,5.10
2019-03-28T21:33:36.453Z,5.57
2019-03-28T21:36:05.554Z,5.10
2019-03-28T21:38:34.682Z,5.77
2019-03-28T21:41:03.666Z,5.87
2019-03-28T21:43:32.667Z,5.73
2019-03-28T21:46:01.674Z,5.47
2019-03-28T21:48:30.677Z,6.30
2019-03-28T21:51:00.045Z,6.07
2019-03-28T21:53:29.072Z,6.43
2019-03-28T21:55:58.001Z,6.47
2019-03-28T21:58:29.083Z,7.03
2019-03-28T22:00:58.019Z,6.83
2019-03-28T22:03:26.962Z,6.27
2019-03-28T22:05:56.970Z,7.80
2019-03-28T22:08:26.218Z,6.87
2019-03-28T22:10:55.173Z,7.30
2019-03-28T22:13:24.304Z,6.90
2019-03-28T22:15:53.349Z,7.23
2019-03-28T22:18:22.248Z,6.70
2019-03-28T22:20:51.627Z,7.97
2019-03-28T22:23:20.963Z,7.00
2019-03-28T22:25:50.062Z,6.70
2019-03-28T22:28:19.158Z,7.20
2019-03-28T22:30:51.396Z,7.70
2019-03-28T22:33:20.359Z,6.73
2019-03-28T22:35:49.374Z,6.20
2019-03-28T22:38:18.180Z,6.43
2019-03-28T22:40:47.342Z,7.13
2019-03-28T22:43:16.341Z,6.47
2019-03-28T22:45:45.216Z,6.67
2019-03-28T22:48:14.176Z,7.00
2019-03-28T22:50:43.168Z,7.33
2019-03-28T22:53:12.580Z,7.70
2019-03-28T22:55:41.734Z,6.90
2019-03-28T22:58:10.707Z,7.10
2019-03-28T23:00:44.770Z,6.67
2019-03-28T23:03:14.584Z,6.53
2019-03-28T23:05:43.857Z,6.80
2019-03-28T23:08:12.779Z,7.03
2019-03-28T23:10:41.840Z,7.30
2019-03-28T23:13:10.934Z,7.00
2019-03-28T23:15:39.803Z,6.93
2019-03-28T23:18:08.955Z,7.27
2019-03-28T23:20:37.846Z,6.73
2019-03-28T23:23:06.781Z,6.93
2019-03-28T23:25:36.909Z,6.80
2019-03-28T23:28:06.248Z,6.90
2019-03-28T23:30:35.336Z,6.80
2019-03-28T23:33:05.018Z,7.07
2019-03-28T23:35:34.199Z,6.67
2019-03-28T23:38:03.080Z,7.07
2019-03-28T23:40:31.889Z,7.00
2019-03-28T23:43:20.255Z,7.20
2019-03-28T23:45:49.505Z,6.20
2019-03-28T23:48:18.372Z,7.17
2019-03-28T23:50:47.352Z,7.37
2019-03-28T23:53:16.212Z,6.90
2019-03-28T23:55:45.442Z,6.87
2019-03-28T23:58:14.533Z,6.63
